Forside
METAR-TAF:

METAR-TAF

Lufthavne :

Aarhus Lufthavn

Aarhus, Danmark

Breddekreds: 56-18N, længdekreds: 010-37E, højde: 23 m

Aktuelle vejr

Denne rapport blev lavet for 11 minutter siden, kl. 09:50 UTC
Vind 14 kt fra vest, varierende mellem sydvest og vestnordvest
Temperatur 13°C
Fugtighed 67%
Tryk 1009 hPa
Sigt 10 km eller mere

METAR: EKAH 230950Z AUTO 27014KT 230V290 9999NDV FEW027/// 13/07 Q1009

Tid: 12:01 (10:01 UTC)

Vejrudsigter

Denne rapport blev lavet for 4 timer og 54 minutter siden, kl. 05:07 UTC
Foreløbig gælder fra 23 på 06 UTC til 24 på 06 UTC
Vind 10 kt fra vest
Sigt 10 km eller mere
Spredte skyer i en højde af 3000 ft
Midlertidig
fra 23 på 06 UTC til 23 på 14 UTC
Vind 15 kt fra vest med vindstød på up til 25 kt
Nogle få skyer i en højde af 2000 ft, Cumulonimbus.

TAF: EKAH 230507Z 2306/2406 26010KT 9999 SCT030 TEMPO 2306/2314 26015G25KT FEW020CB

Vejrobservationer og prognoser fra mere end 4000 lufthavne (METAR og TAF).

De gule og røde prikker repræsenterer de meteorologiske stationer.

Flyt musen over at se navnet på stationen.

Så klik over at se vejr observationer og prognoser.

At skifte det kort: Klik på de grønne knapper med et sort kors for at zoome ind; på den grønne knap med en bindestreg for at zoome ud; eller på de grønne pile for tilstødende kort.


METAR-TAF: